Time;durP1;ratioP1;P1;durP2;ratioP2;P2;SDS_P1;SDS_P2;PMS_P1;PMS_P2;Temp;Humidity;BMP_temperature;BMP_pressure;BME280_temperature;BME280_humidity;BME280_pressure;Samples;Min_cycle;Max_cycle;Signal;HPM_P1;HPM_P2
2023/03/10 00:01:42;;;;;;;3.23;2.30;;;12.90;99.90;;;;;;5005128;28;20176;-73
2023/03/10 00:04:08;;;;;;;2.67;1.73;;;12.90;99.90;;;;;;5005680;28;20180;-73
2023/03/10 00:06:35;;;;;;;4.20;2.00;;;12.70;99.90;;;;;;5004443;28;20689;-72
2023/03/10 00:09:01;;;;;;;2.77;1.40;;;12.70;99.90;;;;;;5003334;28;20429;-73
2023/03/10 00:11:27;;;;;;;4.00;2.27;;;12.70;99.90;;;;;;5004839;28;20473;-70
2023/03/10 00:13:52;;;;;;;4.70;1.97;;;12.90;99.90;;;;;;5004158;28;20411;-71
2023/03/10 00:16:21;;;;;;;2.30;1.63;;;12.80;99.90;;;;;;5004814;28;21214;-71
2023/03/10 00:18:47;;;;;;;2.87;1.70;;;12.70;99.90;;;;;;5004793;28;20172;-70
2023/03/10 00:21:15;;;;;;;2.27;1.30;;;12.70;99.90;;;;;;5004193;28;20510;-70
2023/03/10 00:23:40;;;;;;;3.60;1.47;;;12.70;99.90;;;;;;5003709;28;20863;-71
2023/03/10 00:26:06;;;;;;;4.43;1.80;;;12.70;99.90;;;;;;5004673;28;20475;-71
2023/03/10 00:28:32;;;;;;;2.03;1.53;;;12.60;99.90;;;;;;5004480;28;20690;-70
2023/03/10 00:30:59;;;;;;;4.90;2.20;;;12.50;99.90;;;;;;5004582;28;20172;-70
2023/03/10 00:33:25;;;;;;;4.20;2.00;;;12.50;99.90;;;;;;5004386;28;20196;-72
2023/03/10 00:36:00;;;;;;;5.00;2.03;;;12.60;99.90;;;;;;5004601;28;20461;-71
2023/03/10 00:38:26;;;;;;;2.80;1.57;;;12.60;99.90;;;;;;5004487;28;20183;-75
2023/03/10 00:40:58;;;;;;;6.43;1.50;;;12.50;99.90;;;;;;5004019;28;20421;-71
2023/03/10 00:43:23;;;;;;;2.73;1.90;;;12.50;99.90;;;;;;5002794;28;20205;-71
2023/03/10 00:45:49;;;;;;;4.47;1.90;;;12.50;99.90;;;;;;5004280;28;20417;-70
2023/03/10 00:48:14;;;;;;;4.00;1.97;;;12.60;99.90;;;;;;5004416;28;20209;-70
2023/03/10 00:50:40;;;;;;;3.80;1.60;;;12.60;99.90;;;;;;5004320;28;20180;-73
2023/03/10 00:53:05;;;;;;;3.03;1.40;;;12.60;99.90;;;;;;5003560;28;20203;-72
2023/03/10 00:55:31;;;;;;;2.77;1.60;;;12.50;99.90;;;;;;5004481;28;20204;-70
2023/03/10 00:57:56;;;;;;;2.07;1.20;;;12.40;99.90;;;;;;5003988;28;20260;-70
2023/03/10 01:00:22;;;;;;;1.67;1.40;;;12.40;99.90;;;;;;5004247;28;20204;-70
2023/03/10 01:02:50;;;;;;;2.90;1.40;;;12.40;99.90;;;;;;5004223;28;20220;-70
2023/03/10 01:05:16;;;;;;;2.60;1.27;;;12.30;99.90;;;;;;5004183;28;20925;-71
2023/03/10 01:07:41;;;;;;;4.33;1.70;;;12.20;99.90;;;;;;5002804;28;20436;-71
2023/03/10 01:10:07;;;;;;;3.73;1.30;;;12.20;99.90;;;;;;5004567;28;20195;-71
2023/03/10 01:12:33;;;;;;;2.47;1.50;;;12.30;99.90;;;;;;5004998;28;20278;-72
2023/03/10 01:14:58;;;;;;;2.40;1.30;;;12.30;99.90;;;;;;5004811;28;20555;-73
2023/03/10 01:17:24;;;;;;;1.80;1.17;;;12.40;99.90;;;;;;5004118;28;20216;-75
2023/03/10 01:19:50;;;;;;;1.33;1.10;;;12.60;99.90;;;;;;5004290;28;20172;-70
2023/03/10 01:22:15;;;;;;;4.20;1.93;;;12.70;99.90;;;;;;5003995;28;20228;-74
2023/03/10 01:24:41;;;;;;;3.23;2.00;;;12.50;99.90;;;;;;5005332;28;20211;-75
2023/03/10 01:27:06;;;;;;;3.33;1.63;;;12.40;99.90;;;;;;5002987;28;20174;-72
2023/03/10 01:29:32;;;;;;;3.33;1.77;;;12.50;99.90;;;;;;5004067;28;20172;-72
2023/03/10 01:31:57;;;;;;;1.77;1.57;;;12.50;99.90;;;;;;5002220;28;20230;-71
2023/03/10 01:34:23;;;;;;;3.20;1.70;;;12.50;99.90;;;;;;5003723;28;20621;-72
2023/03/10 01:36:48;;;;;;;2.77;1.40;;;12.70;99.90;;;;;;5003099;28;20506;-70
2023/03/10 01:39:14;;;;;;;3.90;2.00;;;12.60;99.90;;;;;;5004344;28;20180;-71
2023/03/10 01:41:41;;;;;;;1.90;1.30;;;12.40;99.90;;;;;;5003752;28;20206;-69
2023/03/10 01:44:13;;;;;;;4.50;1.80;;;12.30;99.90;;;;;;5004166;28;20184;-70
2023/03/10 01:46:44;;;;;;;4.20;1.40;;;12.20;99.90;;;;;;5003643;28;20415;-72
2023/03/10 01:49:23;;;;;;;4.00;1.47;;;12.30;99.90;;;;;;5003796;28;21301;-70
2023/03/10 01:52:13;;;;;;;3.30;2.00;;;12.20;99.90;;;;;;5002872;28;20765;-70
2023/03/10 01:54:48;;;;;;;2.70;1.37;;;12.10;99.90;;;;;;5005995;28;20419;-71
2023/03/10 01:57:15;;;;;;;2.93;1.40;;;12.00;99.90;;;;;;5005966;28;20444;-70
2023/03/10 01:59:41;;;;;;;3.20;1.37;;;12.00;99.90;;;;;;5007436;28;20479;-70
2023/03/10 02:02:09;;;;;;;2.77;1.30;;;12.00;99.90;;;;;;5006975;28;20984;-72
2023/03/10 02:04:39;;;;;;;1.43;1.07;;;12.20;99.90;;;;;;5007250;28;20425;-70
2023/03/10 02:07:05;;;;;;;2.70;1.30;;;12.10;99.90;;;;;;5006879;28;20835;-72
2023/03/10 02:09:35;;;;;;;2.47;1.50;;;12.20;99.90;;;;;;5006966;28;20406;-72
2023/03/10 02:12:02;;;;;;;2.70;1.37;;;12.30;99.90;;;;;;5007246;28;20526;-71
2023/03/10 02:14:28;;;;;;;3.27;1.50;;;12.10;99.90;;;;;;5006875;28;20413;-70
2023/03/10 02:16:54;;;;;;;2.93;1.17;;;11.90;99.90;;;;;;5007450;28;20516;-71
2023/03/10 02:19:37;;;;;;;3.53;1.47;;;11.90;99.90;;;;;;5006368;28;20180;-76
2023/03/10 02:22:06;;;;;;;2.90;1.10;;;11.90;99.90;;;;;;5006099;28;20212;-71
2023/03/10 02:24:44;;;;;;;3.03;1.40;;;11.90;99.90;;;;;;5007021;28;20418;-73
2023/03/10 02:27:12;;;;;;;7.70;1.73;;;12.00;99.90;;;;;;5007338;28;20992;-70
2023/03/10 02:30:05;;;;;;;2.90;1.20;;;11.90;99.90;;;;;;5007147;28;20411;-73
2023/03/10 02:32:35;;;;;;;1.27;1.00;;;11.80;99.90;;;;;;5010002;28;20803;-72
2023/03/10 02:35:02;;;;;;;2.10;1.10;;;11.80;99.90;;;;;;5011042;28;20550;-72
2023/03/10 02:37:30;;;;;;;2.23;1.00;;;11.70;99.90;;;;;;5010047;28;20415;-70
2023/03/10 02:39:57;;;;;;;2.03;0.93;;;11.70;99.90;;;;;;5009832;28;20415;-70
2023/03/10 02:42:26;;;;;;;1.73;0.97;;;11.60;99.90;;;;;;5005177;28;20449;-71
2023/03/10 02:44:54;;;;;;;3.53;1.30;;;11.80;99.90;;;;;;5006912;28;20502;-71
2023/03/10 02:47:19;;;;;;;3.93;1.20;;;11.70;99.90;;;;;;5006960;28;20414;-74
2023/03/10 02:49:45;;;;;;;1.20;0.83;;;11.70;99.90;;;;;;5005308;28;20435;-72
2023/03/10 02:52:37;;;;;;;3.00;0.90;;;11.70;99.90;;;;;;5005977;28;20278;-72
2023/03/10 02:55:03;;;;;;;3.37;1.00;;;11.70;99.90;;;;;;5006216;28;20223;-71
2023/03/10 02:57:29;;;;;;;2.27;1.20;;;11.70;99.90;;;;;;5006213;28;20410;-69
2023/03/10 02:59:54;;;;;;;1.83;1.33;;;11.60;99.90;;;;;;5006512;28;20523;-70
2023/03/10 03:02:20;;;;;;;1.80;0.90;;;11.50;99.90;;;;;;5005926;28;20211;-73
2023/03/10 03:04:45;;;;;;;1.73;1.07;;;11.40;99.90;;;;;;5004462;28;20183;-71
2023/03/10 03:07:11;;;;;;;1.33;1.00;;;11.30;99.90;;;;;;5005509;28;20238;-70
2023/03/10 03:09:36;;;;;;;1.17;1.07;;;11.30;99.90;;;;;;5006145;28;20178;-71
2023/03/10 03:12:02;;;;;;;2.50;0.90;;;11.30;99.90;;;;;;5004521;28;20204;-71
2023/03/10 03:14:28;;;;;;;2.17;1.00;;;11.30;99.90;;;;;;5005729;28;20179;-69
2023/03/10 03:16:53;;;;;;;0.97;0.70;;;11.50;99.90;;;;;;5004561;28;20723;-70
2023/03/10 03:19:19;;;;;;;1.80;1.00;;;11.30;99.90;;;;;;5005887;28;20462;-70
2023/03/10 03:21:48;;;;;;;1.37;0.90;;;11.40;99.90;;;;;;5005467;28;20191;-71
2023/03/10 03:24:19;;;;;;;2.60;0.90;;;11.30;99.90;;;;;;5005642;28;20181;-71
2023/03/10 03:26:45;;;;;;;2.03;1.00;;;11.30;99.90;;;;;;5005785;28;20422;-72
2023/03/10 03:29:11;;;;;;;1.40;0.83;;;11.50;99.90;;;;;;5005585;28;20424;-69
2023/03/10 03:31:37;;;;;;;1.30;0.90;;;11.40;99.90;;;;;;5030376;22;20251;-69
2023/03/10 03:34:03;;;;;;;1.53;0.80;;;11.20;99.90;;;;;;5004982;28;20171;-70
2023/03/10 03:36:29;;;;;;;1.00;0.70;;;11.20;99.90;;;;;;5005651;28;21056;-71
2023/03/10 03:38:54;;;;;;;1.87;0.70;;;11.30;99.90;;;;;;5005022;28;20649;-75
2023/03/10 03:41:20;;;;;;;2.10;1.00;;;11.20;99.90;;;;;;5005803;28;20521;-74
2023/03/10 03:43:46;;;;;;;2.13;0.90;;;11.30;99.90;;;;;;5005021;28;20231;-69
2023/03/10 03:46:11;;;;;;;2.20;1.00;;;11.20;99.90;;;;;;5005005;28;20647;-72
2023/03/10 03:48:37;;;;;;;1.47;0.80;;;11.20;99.90;;;;;;5005235;28;20183;-71
2023/03/10 03:51:03;;;;;;;0.80;0.50;;;11.20;99.90;;;;;;5005129;28;20213;-70
2023/03/10 03:53:30;;;;;;;1.77;0.80;;;11.20;99.90;;;;;;5004484;28;20195;-69
2023/03/10 03:55:55;;;;;;;1.10;0.60;;;11.10;99.90;;;;;;5004391;28;20476;-68
2023/03/10 03:58:21;;;;;;;1.60;0.60;;;11.00;99.90;;;;;;5004777;28;20428;-71
2023/03/10 04:00:47;;;;;;;1.00;0.70;;;11.00;99.90;;;;;;5004598;28;20570;-71
2023/03/10 04:03:12;;;;;;;0.77;0.50;;;11.00;99.90;;;;;;5004448;28;20567;-71
2023/03/10 04:05:38;;;;;;;1.17;0.60;;;11.00;99.90;;;;;;5004824;28;20209;-72
2023/03/10 04:08:04;;;;;;;1.60;0.70;;;11.00;99.90;;;;;;5004077;28;20183;-74
2023/03/10 04:10:29;;;;;;;1.30;0.60;;;11.00;99.90;;;;;;5005003;28;20206;-71
2023/03/10 04:12:55;;;;;;;1.27;0.70;;;11.00;99.90;;;;;;5004730;28;20423;-70
2023/03/10 04:15:21;;;;;;;1.43;0.77;;;11.10;99.90;;;;;;5004334;28;20223;-71
2023/03/10 04:17:46;;;;;;;1.00;0.50;;;11.00;99.90;;;;;;5004063;28;20614;-74
2023/03/10 04:20:13;;;;;;;1.40;0.67;;;11.10;99.90;;;;;;5004565;28;20199;-71
2023/03/10 04:22:39;;;;;;;1.80;0.73;;;11.10;99.90;;;;;;5004041;28;20601;-70
2023/03/10 04:25:06;;;;;;;1.30;0.67;;;11.00;99.90;;;;;;5005400;28;20474;-72
2023/03/10 04:27:31;;;;;;;0.90;0.60;;;10.90;99.90;;;;;;5005061;28;20421;-72
2023/03/10 04:29:57;;;;;;;2.70;0.70;;;10.90;99.90;;;;;;5004771;28;20548;-72
2023/03/10 04:32:22;;;;;;;0.93;0.60;;;10.90;99.90;;;;;;5003409;28;20180;-71
2023/03/10 04:34:48;;;;;;;1.67;0.60;;;11.00;99.90;;;;;;5004102;28;20177;-74
2023/03/10 04:37:14;;;;;;;2.03;0.70;;;11.00;99.90;;;;;;5004266;28;20771;-71
2023/03/10 04:39:40;;;;;;;1.27;0.60;;;11.00;99.90;;;;;;5004176;28;20199;-69
2023/03/10 04:42:06;;;;;;;2.13;0.70;;;10.90;99.90;;;;;;5004136;28;20438;-74
2023/03/10 04:44:32;;;;;;;1.97;0.80;;;10.80;99.90;;;;;;5003889;28;20446;-75
2023/03/10 04:46:58;;;;;;;1.10;0.50;;;10.90;99.90;;;;;;5004064;28;20180;-73
2023/03/10 04:49:24;;;;;;;1.53;0.63;;;11.00;99.90;;;;;;5004269;28;20476;-71
2023/03/10 04:51:49;;;;;;;0.70;0.60;;;11.00;99.90;;;;;;5004082;28;20517;-71
2023/03/10 04:54:15;;;;;;;2.03;0.63;;;11.10;99.90;;;;;;5003505;28;20238;-73
2023/03/10 04:56:41;;;;;;;2.93;0.70;;;11.20;99.90;;;;;;5005900;28;20195;-72
2023/03/10 04:59:06;;;;;;;0.80;0.60;;;11.30;99.90;;;;;;5007503;28;20187;-72
2023/03/10 05:01:33;;;;;;;1.20;0.63;;;11.40;99.90;;;;;;5007228;28;20258;-72
2023/03/10 05:03:59;;;;;;;1.87;0.90;;;11.40;99.90;;;;;;5007335;28;20261;-70
2023/03/10 05:06:25;;;;;;;0.80;0.50;;;11.40;99.90;;;;;;5006588;28;20469;-71
2023/03/10 05:08:51;;;;;;;1.00;0.70;;;11.40;99.90;;;;;;5006551;28;20528;-74
2023/03/10 05:11:17;;;;;;;1.60;0.70;;;11.20;99.90;;;;;;5006797;28;20444;-71
2023/03/10 05:13:42;;;;;;;1.77;0.90;;;11.20;99.90;;;;;;5006363;28;20764;-71
2023/03/10 05:16:17;;;;;;;0.87;0.73;;;11.20;99.90;;;;;;5006665;28;20206;-71
2023/03/10 05:18:43;;;;;;;1.73;0.70;;;11.30;99.90;;;;;;5006372;28;20334;-75
2023/03/10 05:21:09;;;;;;;1.30;0.80;;;11.20;99.90;;;;;;5006236;28;20433;-69
2023/03/10 05:23:36;;;;;;;2.80;0.73;;;11.10;99.90;;;;;;5005607;28;20896;-71
2023/03/10 05:26:06;;;;;;;1.13;0.63;;;11.00;99.90;;;;;;5006388;28;20429;-70
2023/03/10 05:28:32;;;;;;;1.03;0.60;;;10.90;99.90;;;;;;5009054;28;20498;-71
2023/03/10 05:30:57;;;;;;;1.63;0.60;;;10.90;99.90;;;;;;5010042;28;20942;-74
2023/03/10 05:33:23;;;;;;;2.73;1.60;;;10.80;99.90;;;;;;5009815;28;20183;-71
2023/03/10 05:35:49;;;;;;;3.17;1.37;;;10.60;99.90;;;;;;5008506;28;20544;-72
2023/03/10 05:38:15;;;;;;;2.33;1.40;;;10.50;99.90;;;;;;5009392;28;20643;-70
2023/03/10 05:40:41;;;;;;;1.47;0.93;;;10.40;99.90;;;;;;5009769;28;20673;-71
2023/03/10 05:43:07;;;;;;;2.07;1.27;;;10.40;99.90;;;;;;5009417;28;20480;-70
2023/03/10 05:45:32;;;;;;;2.60;1.43;;;10.40;99.90;;;;;;5009437;28;20425;-71
2023/03/10 05:47:58;;;;;;;2.07;1.07;;;10.30;99.90;;;;;;5009593;28;20234;-74
2023/03/10 05:50:24;;;;;;;2.53;1.27;;;10.50;99.90;;;;;;5009716;28;20212;-74
2023/03/10 05:52:49;;;;;;;4.30;1.27;;;10.60;99.90;;;;;;5008930;28;20202;-72
2023/03/10 05:55:17;;;;;;;1.77;1.30;;;10.70;99.90;;;;;;5009832;28;20208;-71
2023/03/10 05:57:43;;;;;;;4.10;2.20;;;10.70;99.90;;;;;;5009511;28;20176;-69
2023/03/10 06:00:10;;;;;;;3.30;0.97;;;10.90;99.90;;;;;;5005803;28;20764;-71
2023/03/10 06:02:39;;;;;;;2.13;1.30;;;10.90;99.90;;;;;;5007413;28;20176;-72
2023/03/10 06:05:06;;;;;;;3.23;1.53;;;10.90;99.90;;;;;;5007019;28;20416;-72
2023/03/10 06:07:32;;;;;;;4.47;3.53;;;10.90;99.90;;;;;;5006657;28;20426;-72
2023/03/10 06:09:58;;;;;;;3.07;1.20;;;11.00;99.90;;;;;;5006431;28;20444;-71
2023/03/10 06:12:23;;;;;;;3.03;1.07;;;10.90;99.90;;;;;;5007076;28;20774;-71
2023/03/10 06:14:49;;;;;;;3.80;1.80;;;10.90;99.90;;;;;;5006781;28;20184;-73
2023/03/10 06:17:14;;;;;;;1.50;1.10;;;11.00;99.90;;;;;;5006747;28;20207;-71
2023/03/10 06:19:40;;;;;;;1.00;0.90;;;11.10;99.90;;;;;;5005630;28;20180;-72
2023/03/10 06:22:05;;;;;;;2.40;1.00;;;11.00;99.90;;;;;;5006936;28;20639;-70
2023/03/10 06:24:31;;;;;;;3.70;2.30;;;10.90;99.90;;;;;;5005815;28;20640;-71
2023/03/10 06:26:56;;;;;;;2.90;1.00;;;10.80;99.90;;;;;;5006398;28;20172;-71
2023/03/10 06:29:22;;;;;;;4.03;1.67;;;10.70;99.90;;;;;;5006399;28;20721;-70
2023/03/10 06:31:48;;;;;;;1.43;0.70;;;10.50;99.90;;;;;;5006004;28;20223;-72
2023/03/10 06:34:13;;;;;;;2.87;1.10;;;10.40;99.90;;;;;;5003906;28;20670;-71
2023/03/10 06:36:40;;;;;;;9.60;6.60;;;10.40;99.90;;;;;;5006122;28;20197;-74
2023/03/10 06:39:06;;;;;;;1.70;1.10;;;10.40;99.90;;;;;;5004941;28;20175;-71
2023/03/10 06:41:34;;;;;;;1.63;0.70;;;10.30;99.90;;;;;;5005824;28;20436;-74
2023/03/10 06:44:00;;;;;;;3.00;0.80;;;10.30;99.90;;;;;;5005680;28;21831;-73
2023/03/10 06:46:26;;;;;;;2.17;0.77;;;10.30;99.90;;;;;;5005576;28;20415;-72
2023/03/10 06:48:51;;;;;;;2.77;2.20;;;10.20;99.90;;;;;;5005467;28;20210;-72
2023/03/10 06:51:19;;;;;;;1.50;0.93;;;10.20;99.90;;;;;;5005344;28;20982;-72
2023/03/10 06:53:45;;;;;;;3.80;1.20;;;10.20;99.90;;;;;;5005505;28;20565;-72
2023/03/10 06:56:14;;;;;;;0.90;0.60;;;10.20;99.90;;;;;;5005690;28;20885;-71
2023/03/10 06:58:40;;;;;;;2.20;0.70;;;10.20;99.90;;;;;;5005539;28;20411;-71
2023/03/10 07:01:07;;;;;;;3.67;0.80;;;10.30;99.90;;;;;;5003923;28;21027;-75
2023/03/10 07:03:34;;;;;;;1.60;0.70;;;10.40;99.90;;;;;;5005220;28;20524;-73
2023/03/10 07:06:00;;;;;;;1.93;0.70;;;10.50;99.90;;;;;;5005695;28;20423;-71
2023/03/10 07:08:27;;;;;;;1.00;0.90;;;10.70;99.90;;;;;;5005430;28;20894;-72
2023/03/10 07:10:53;;;;;;;1.00;0.80;;;10.90;99.90;;;;;;5005561;28;20287;-71
2023/03/10 07:13:20;;;;;;;1.87;0.87;;;11.00;99.90;;;;;;5005234;28;20519;-72
2023/03/10 07:15:46;;;;;;;2.03;0.70;;;11.20;99.90;;;;;;5005203;28;20203;-72
2023/03/10 07:18:15;;;;;;;2.37;0.60;;;11.20;99.90;;;;;;5005497;28;20415;-72
2023/03/10 07:20:46;;;;;;;1.20;0.73;;;11.30;99.90;;;;;;5005613;28;20455;-73
2023/03/10 07:23:12;;;;;;;2.77;0.70;;;11.40;99.90;;;;;;5006064;28;20476;-72
2023/03/10 07:25:38;;;;;;;1.00;0.80;;;11.60;99.90;;;;;;5007278;28;20466;-71
2023/03/10 07:28:05;;;;;;;0.90;0.60;;;11.80;99.90;;;;;;5008815;28;21055;-72
2023/03/10 07:30:33;;;;;;;1.60;0.77;;;11.90;99.90;;;;;;5011511;28;20880;-72
2023/03/10 07:32:58;;;;;;;2.03;0.70;;;12.00;99.90;;;;;;5010302;28;20426;-71
2023/03/10 07:35:24;;;;;;;1.37;0.80;;;12.30;99.90;;;;;;5007963;28;20523;-72
2023/03/10 07:37:50;;;;;;;1.00;0.70;;;12.40;99.90;;;;;;5008039;28;20183;-72
2023/03/10 07:40:15;;;;;;;1.30;0.70;;;12.60;99.90;;;;;;5012049;28;20201;-73
2023/03/10 07:42:42;;;;;;;1.50;1.00;;;12.60;99.90;;;;;;5008833;28;20263;-72
2023/03/10 07:45:08;;;;;;;1.20;0.80;;;12.40;99.90;;;;;;5008142;28;20238;-72
2023/03/10 07:47:34;;;;;;;2.70;0.70;;;12.30;99.90;;;;;;5008347;28;20421;-72
2023/03/10 07:49:59;;;;;;;2.10;0.77;;;12.00;99.90;;;;;;5009234;28;20722;-73
2023/03/10 07:52:27;;;;;;;1.40;0.77;;;11.90;99.90;;;;;;5007651;28;20191;-71
2023/03/10 07:54:52;;;;;;;1.57;0.80;;;11.80;99.90;;;;;;5003723;28;20176;-71
2023/03/10 07:57:18;;;;;;;1.67;0.80;;;11.70;99.90;;;;;;5004190;28;20924;-71
2023/03/10 07:59:43;;;;;;;2.23;0.80;;;11.80;99.90;;;;;;5004111;28;20527;-71
2023/03/10 08:02:13;;;;;;;1.43;0.90;;;11.90;99.90;;;;;;5004238;28;20187;-74
2023/03/10 08:04:39;;;;;;;1.30;0.90;;;11.90;99.90;;;;;;5003879;28;20202;-73
2023/03/10 08:07:06;;;;;;;3.97;1.00;;;11.80;99.90;;;;;;5004318;28;20411;-70
2023/03/10 08:09:32;;;;;;;3.50;1.30;;;11.70;99.90;;;;;;5004069;28;20469;-74
2023/03/10 08:11:58;;;;;;;2.30;0.90;;;11.60;99.90;;;;;;5004397;28;20441;-73
2023/03/10 08:14:26;;;;;;;5.53;0.93;;;11.60;99.90;;;;;;5003449;28;20937;-72
2023/03/10 08:16:52;;;;;;;1.83;0.93;;;11.50;99.90;;;;;;5003732;28;20674;-74
2023/03/10 08:19:17;;;;;;;1.90;1.00;;;11.30;99.90;;;;;;5003973;28;20429;-71
2023/03/10 08:21:43;;;;;;;2.57;1.00;;;11.40;99.90;;;;;;5002468;28;20478;-70
2023/03/10 08:24:09;;;;;;;3.50;0.90;;;11.10;99.90;;;;;;5004021;28;20559;-69
2023/03/10 08:26:35;;;;;;;1.20;0.73;;;10.80;99.90;;;;;;5003816;28;20663;-71
2023/03/10 08:29:01;;;;;;;1.90;0.83;;;10.70;99.90;;;;;;5004448;28;20454;-70
2023/03/10 08:31:27;;;;;;;1.77;0.80;;;10.80;99.90;;;;;;5003776;28;20216;-71
2023/03/10 08:33:56;;;;;;;1.83;1.10;;;10.90;99.90;;;;;;5003450;28;20932;-71
2023/03/10 08:36:26;;;;;;;1.30;0.80;;;11.00;99.90;;;;;;5003706;28;20224;-69
2023/03/10 08:38:53;;;;;;;0.90;0.63;;;11.10;99.90;;;;;;5003533;28;20423;-71
2023/03/10 08:41:25;;;;;;;1.30;0.70;;;11.00;99.90;;;;;;5003207;28;20440;-70
2023/03/10 08:43:52;;;;;;;1.50;0.90;;;11.10;99.90;;;;;;5003783;28;20994;-71
2023/03/10 08:46:20;;;;;;;1.43;0.90;;;11.10;99.90;;;;;;5003283;28;20442;-70
2023/03/10 08:48:46;;;;;;;1.47;0.70;;;11.10;99.90;;;;;;5003005;28;20511;-71
2023/03/10 08:51:13;;;;;;;2.03;0.80;;;11.30;99.90;;;;;;5003745;28;20866;-73
2023/03/10 08:53:38;;;;;;;1.70;0.87;;;11.50;99.90;;;;;;5003366;28;20213;-70
2023/03/10 08:56:05;;;;;;;2.23;1.00;;;11.90;99.90;;;;;;5003618;28;20537;-70
2023/03/10 08:58:31;;;;;;;1.57;1.00;;;12.10;99.90;;;;;;5003455;28;20184;-70
2023/03/10 09:00:56;;;;;;;1.63;0.70;;;11.90;99.90;;;;;;5003251;28;20739;-70
2023/03/10 09:03:22;;;;;;;0.80;0.60;;;11.80;99.90;;;;;;5001753;28;20181;-70
2023/03/10 09:05:47;;;;;;;1.13;0.70;;;11.60;99.90;;;;;;5003057;28;20283;-70
2023/03/10 09:08:13;;;;;;;1.30;0.87;;;11.50;99.90;;;;;;5002994;28;20191;-72
2023/03/10 09:10:41;;;;;;;4.00;0.87;;;11.40;99.90;;;;;;5003278;28;20721;-73
2023/03/10 09:13:07;;;;;;;1.10;0.70;;;11.40;99.90;;;;;;5001893;28;20209;-74
2023/03/10 09:15:33;;;;;;;1.13;0.70;;;11.60;99.90;;;;;;5003532;28;20500;-68
2023/03/10 09:18:00;;;;;;;0.90;0.60;;;11.90;99.90;;;;;;5003543;28;20481;-70
2023/03/10 09:20:26;;;;;;;1.17;0.67;;;12.20;99.90;;;;;;5003263;28;20766;-71
2023/03/10 09:22:53;;;;;;;1.93;0.80;;;12.40;99.90;;;;;;5001798;28;20420;-69
2023/03/10 09:25:20;;;;;;;2.50;0.83;;;12.60;99.90;;;;;;5003201;28;21250;-71
2023/03/10 09:27:45;;;;;;;1.97;1.10;;;12.50;99.90;;;;;;5003094;28;20465;-71
2023/03/10 09:30:12;;;;;;;3.53;1.13;;;12.80;99.90;;;;;;5002513;28;20878;-71
2023/03/10 09:32:38;;;;;;;2.57;1.00;;;12.40;99.90;;;;;;5002728;28;20191;-73
2023/03/10 09:35:04;;;;;;;2.00;1.03;;;12.80;99.90;;;;;;5003112;28;20589;-72
2023/03/10 09:37:31;;;;;;;2.83;1.37;;;13.00;99.90;;;;;;5002979;28;20999;-72
2023/03/10 09:39:56;;;;;;;2.20;1.57;;;12.70;99.90;;;;;;5002845;28;20435;-72
2023/03/10 09:42:41;;;;;;;4.87;1.10;;;12.80;99.90;;;;;;5003012;28;20427;-72
2023/03/10 09:45:25;;;;;;;1.63;1.10;;;12.60;99.90;;;;;;5003502;28;20174;-72
2023/03/10 09:48:14;;;;;;;2.50;1.00;;;12.90;99.90;;;;;;5002939;28;20582;-73
2023/03/10 09:50:51;;;;;;;2.37;0.90;;;13.10;99.90;;;;;;5002557;28;20439;-72
2023/03/10 09:53:22;;;;;;;3.33;1.10;;;13.30;99.90;;;;;;5002530;28;20977;-71
2023/03/10 09:55:48;;;;;;;2.57;1.03;;;13.60;99.90;;;;;;5002763;28;20979;-71
2023/03/10 09:58:31;;;;;;;2.00;1.03;;;13.70;99.90;;;;;;5001768;28;20424;-74
2023/03/10 10:00:59;;;;;;;2.40;0.70;;;13.80;99.90;;;;;;5002822;28;21007;-71
2023/03/10 10:03:35;;;;;;;2.47;0.90;;;13.60;99.90;;;;;;5003312;28;20424;-72
2023/03/10 10:06:04;;;;;;;2.10;1.20;;;13.50;99.90;;;;;;5002117;28;20446;-71
2023/03/10 10:08:39;;;;;;;1.63;0.90;;;13.80;99.90;;;;;;5002718;28;20516;-72
2023/03/10 10:11:09;;;;;;;1.53;0.87;;;13.70;99.90;;;;;;5002722;28;20460;-72
2023/03/10 10:13:35;;;;;;;4.20;1.40;;;13.80;99.90;;;;;;5002579;28;20422;-72
2023/03/10 10:16:08;;;;;;;1.43;0.73;;;14.00;99.90;;;;;;5031595;22;20546;-70
2023/03/10 10:18:45;;;;;;;2.60;1.27;;;13.90;99.90;;;;;;5006141;28;20843;-71
2023/03/10 10:21:21;;;;;;;1.47;0.93;;;13.60;99.90;;;;;;5006744;28;20759;-70
2023/03/10 10:23:50;;;;;;;3.57;0.90;;;13.50;99.90;;;;;;5007011;28;20480;-73
2023/03/10 10:26:22;;;;;;;1.57;0.77;;;13.40;99.90;;;;;;5007695;28;21124;-70
2023/03/10 10:28:55;;;;;;;1.70;1.10;;;13.30;99.90;;;;;;5005746;28;20421;-73
2023/03/10 10:31:26;;;;;;;3.00;0.90;;;13.50;99.90;;;;;;5008404;28;20417;-73
2023/03/10 10:34:00;;;;;;;1.77;0.70;;;13.10;99.90;;;;;;5007835;28;20403;-72
2023/03/10 10:36:33;;;;;;;2.43;1.07;;;13.00;99.90;;;;;;5008276;28;20476;-69
2023/03/10 10:39:00;;;;;;;4.40;1.13;;;13.00;99.90;;;;;;5008642;28;20417;-69
2023/03/10 10:41:32;;;;;;;1.23;0.77;;;13.40;99.90;;;;;;5009027;28;20828;-72
2023/03/10 10:44:06;;;;;;;1.77;0.80;;;13.70;99.90;;;;;;5008770;28;20405;-73
2023/03/10 10:46:32;;;;;;;1.67;0.80;;;13.30;99.90;;;;;;5009064;28;20444;-71
2023/03/10 10:49:04;;;;;;;1.67;0.90;;;13.30;99.90;;;;;;5007277;28;20432;-71
2023/03/10 10:51:34;;;;;;;1.90;0.93;;;13.30;99.90;;;;;;5009112;28;20528;-69
2023/03/10 10:54:20;;;;;;;2.10;0.90;;;13.40;99.90;;;;;;5008769;28;20440;-75
2023/03/10 10:56:59;;;;;;;1.90;0.90;;;13.40;99.90;;;;;;5008322;28;20454;-72
2023/03/10 10:59:33;;;;;;;2.37;1.00;;;13.60;99.90;;;;;;5007822;28;20487;-69
2023/03/10 11:02:01;;;;;;;2.10;1.20;;;13.70;99.90;;;;;;5006353;28;20459;-70
2023/03/10 11:04:39;;;;;;;3.20;1.20;;;13.80;99.90;;;;;;5006090;28;20515;-71
2023/03/10 11:07:14;;;;;;;4.70;1.53;;;13.70;99.90;;;;;;5006229;28;20934;-73
2023/03/10 11:09:39;;;;;;;5.60;1.27;;;13.30;99.90;;;;;;5005848;28;20415;-70
2023/03/10 11:12:21;;;;;;;4.00;1.50;;;13.20;99.90;;;;;;5005795;28;20415;-70
2023/03/10 11:14:48;;;;;;;1.77;1.10;;;13.40;99.90;;;;;;5006522;28;20181;-70
2023/03/10 11:17:18;;;;;;;1.90;0.90;;;13.30;99.90;;;;;;5006056;28;20469;-71
2023/03/10 11:20:13;;;;;;;1.63;0.90;;;13.60;99.90;;;;;;5004431;28;20417;-72
2023/03/10 11:23:15;;;;;;;1.80;1.17;;;13.60;99.90;;;;;;5005734;28;20413;-69
2023/03/10 11:25:54;;;;;;;3.00;1.13;;;13.50;99.90;;;;;;5005727;28;20447;-73
2023/03/10 11:28:45;;;;;;;1.97;0.80;;;13.50;99.90;;;;;;5004207;28;20532;-71
2023/03/10 11:31:44;;;;;;;3.53;0.80;;;13.40;99.90;;;;;;5007002;28;20453;-72
2023/03/10 11:34:09;;;;;;;1.17;0.73;;;13.20;99.90;;;;;;5006248;28;20441;-72
2023/03/10 11:36:57;;;;;;;1.60;0.67;;;13.30;99.90;;;;;;5006640;28;20507;-70
2023/03/10 11:39:52;;;;;;;4.23;1.10;;;13.30;99.90;;;;;;5005771;28;20196;-70
2023/03/10 11:42:43;;;;;;;1.13;0.70;;;13.30;99.90;;;;;;5006533;28;21066;-74
2023/03/10 11:45:37;;;;;;;4.13;1.40;;;13.50;99.90;;;;;;5006762;28;20396;-69
2023/03/10 11:48:28;;;;;;;1.60;0.87;;;13.50;99.90;;;;;;5010667;28;20760;-72
2023/03/10 11:50:59;;;;;;;3.30;0.80;;;13.40;99.90;;;;;;5015306;28;20426;-73
2023/03/10 11:53:39;;;;;;;2.60;1.07;;;13.30;99.90;;;;;;5010840;28;20415;-70
2023/03/10 11:56:08;;;;;;;1.33;0.67;;;12.90;99.90;;;;;;5006949;28;20473;-69
2023/03/10 11:59:14;;;;;;;2.03;1.00;;;13.00;99.90;;;;;;5007057;28;20474;-71
2023/03/10 12:02:28;;;;;;;2.17;0.87;;;12.90;99.90;;;;;;4980236;28;20450;-74
2023/03/10 12:05:01;;;;;;;1.77;0.70;;;12.90;99.90;;;;;;4952579;29;20413;-74
2023/03/10 12:07:30;;;;;;;2.30;0.93;;;13.10;99.90;;;;;;5005930;28;20440;-70
2023/03/10 12:10:17;;;;;;;1.87;0.83;;;13.00;99.90;;;;;;5009132;28;20904;-71
2023/03/10 12:12:45;;;;;;;1.60;0.70;;;12.80;99.90;;;;;;5006643;28;20417;-72
2023/03/10 12:15:35;;;;;;;1.47;0.87;;;13.20;99.90;;;;;;5005740;28;20494;-69
2023/03/10 12:18:02;;;;;;;1.37;0.80;;;13.50;99.90;;;;;;5005347;28;20440;-71
2023/03/10 12:20:29;;;;;;;1.60;0.63;;;13.80;99.90;;;;;;5003949;28;20687;-71
2023/03/10 12:23:19;;;;;;;1.80;0.80;;;13.90;99.90;;;;;;5005658;28;20422;-72
2023/03/10 12:25:46;;;;;;;1.33;0.60;;;14.40;99.90;;;;;;5005386;28;20505;-70
2023/03/10 12:28:24;;;;;;;1.00;0.60;;;14.10;99.90;;;;;;5005636;28;20487;-70
2023/03/10 12:30:56;;;;;;;1.10;0.70;;;14.10;99.90;;;;;;5019883;28;20843;-69
2023/03/10 12:36:23;;;;;;;1.03;0.67;;;13.20;99.90;;;;;;5004434;28;20481;-70
2023/03/10 12:38:56;;;;;;;1.43;0.77;;;13.20;99.90;;;;;;5004279;28;20465;-73
2023/03/10 12:41:25;;;;;;;3.33;0.80;;;13.50;99.90;;;;;;5005342;28;20928;-71
2023/03/10 12:43:57;;;;;;;1.87;0.87;;;13.30;99.90;;;;;;5004978;28;20973;-70
2023/03/10 12:46:28;;;;;;;1.33;0.73;;;13.30;99.90;;;;;;5005087;28;20429;-69
2023/03/10 12:49:14;;;;;;;1.70;0.63;;;13.20;99.90;;;;;;5004635;28;20843;-72
2023/03/10 12:51:46;;;;;;;2.90;0.77;;;13.30;99.90;;;;;;4997569;28;20435;-70
2023/03/10 12:54:20;;;;;;;1.37;0.80;;;13.70;99.90;;;;;;5004724;28;20461;-73
2023/03/10 12:56:51;;;;;;;1.00;0.80;;;13.70;99.90;;;;;;5004394;28;20463;-68
2023/03/10 12:59:40;;;;;;;2.30;0.60;;;13.70;99.90;;;;;;5004535;28;20554;-69
2023/03/10 13:02:36;;;;;;;2.50;0.77;;;13.60;99.90;;;;;;5003841;28;20413;-73